Time;durP1;ratioP1;P1;durP2;ratioP2;P2;SDS_P1;SDS_P2;PMS_P1;PMS_P2;Temp;Humidity;BMP_temperature;BMP_pressure;BME280_temperature;BME280_humidity;BME280_pressure;Samples;Min_cycle;Max_cycle;Signal;HPM_P1;HPM_P2
2022/12/28 00:00:23;;;;;;;6.22;2.85;;;6.90;99.90;;;;;;4994947;28;20041;-84
2022/12/28 00:02:49;;;;;;;6.60;2.15;;;7.00;99.90;;;;;;5010558;28;20133;-85
2022/12/28 00:05:16;;;;;;;7.25;2.47;;;5.90;99.90;;;;;;5027377;28;20211;-84
2022/12/28 00:07:43;;;;;;;9.05;3.05;;;5.80;99.90;;;;;;5010335;28;20041;-83
2022/12/28 00:10:09;;;;;;;7.50;3.05;;;7.30;99.90;;;;;;5010665;28;20049;-84
2022/12/28 00:12:34;;;;;;;7.40;2.70;;;5.90;99.90;;;;;;5027404;28;20045;-83
2022/12/28 00:15:00;;;;;;;8.43;2.95;;;7.00;99.90;;;;;;5026698;28;20049;-84
2022/12/28 00:17:26;;;;;;;11.80;3.35;;;5.90;99.90;;;;;;5010300;28;20044;-84
2022/12/28 00:19:52;;;;;;;10.20;3.40;;;7.10;99.90;;;;;;5027169;28;20049;-85
2022/12/28 00:22:18;;;;;;;9.30;2.83;;;6.90;99.90;;;;;;5010520;28;20543;-83
2022/12/28 00:24:43;;;;;;;9.75;3.60;;;5.90;99.90;;;;;;5028634;28;20037;-84
2022/12/28 00:27:09;;;;;;;8.00;2.70;;;5.90;99.90;;;;;;4995984;28;20037;-84
2022/12/28 00:29:35;;;;;;;8.30;3.67;;;5.90;99.90;;;;;;5028712;28;20089;-84
2022/12/28 00:32:01;;;;;;;9.05;2.88;;;6.70;99.90;;;;;;5027443;28;20041;-83
2022/12/28 00:34:26;;;;;;;10.95;2.80;;;5.90;99.90;;;;;;5027290;28;20048;-83
2022/12/28 00:36:52;;;;;;;9.45;3.25;;;6.50;99.90;;;;;;5010163;28;20046;-84
2022/12/28 00:39:19;;;;;;;12.43;3.63;;;6.90;99.90;;;;;;5010510;28;20439;-84
2022/12/28 00:41:45;;;;;;;8.82;3.10;;;5.90;99.90;;;;;;5027576;28;20054;-83
2022/12/28 00:44:11;;;;;;;12.10;3.20;;;7.10;99.90;;;;;;5027390;28;20059;-83
2022/12/28 00:46:36;;;;;;;13.15;3.67;;;5.90;99.90;;;;;;5026178;28;20050;-83
2022/12/28 00:49:03;;;;;;;9.60;3.25;;;7.20;99.90;;;;;;5026821;28;20049;-84
2022/12/28 00:51:28;;;;;;;7.25;3.08;;;6.90;99.90;;;;;;5009433;28;20087;-83
2022/12/28 00:53:54;;;;;;;7.63;3.15;;;5.90;99.90;;;;;;5009265;28;20037;-84
2022/12/28 00:56:21;;;;;;;6.70;3.28;;;6.50;99.90;;;;;;5009166;28;20057;-84
2022/12/28 00:58:47;;;;;;;11.55;3.50;;;6.10;99.90;;;;;;5026780;28;20278;-84
2022/12/28 01:01:16;;;;;;;12.55;3.50;;;6.20;99.90;;;;;;5026699;28;20385;-83
2022/12/28 01:03:42;;;;;;;11.13;4.95;;;5.90;99.90;;;;;;5009386;28;20048;-84
2022/12/28 01:06:10;;;;;;;13.80;4.55;;;5.90;99.90;;;;;;4993298;28;20057;-81
2022/12/28 01:08:37;;;;;;;15.38;3.47;;;5.90;99.90;;;;;;5009275;28;20081;-82
2022/12/28 01:11:16;;;;;;;10.32;2.92;;;5.90;99.90;;;;;;5025405;28;20045;-82
2022/12/28 01:13:42;;;;;;;10.77;3.40;;;6.00;99.90;;;;;;5026677;28;20053;-84
2022/12/28 01:16:14;;;;;;;9.32;3.08;;;5.90;99.90;;;;;;5025112;28;20381;-83
2022/12/28 01:18:40;;;;;;;6.68;3.13;;;6.00;99.90;;;;;;5009241;28;20037;-82
2022/12/28 01:21:16;;;;;;;6.88;2.88;;;6.00;99.90;;;;;;4993128;28;20042;-82
2022/12/28 01:23:43;;;;;;;6.97;3.42;;;7.00;99.90;;;;;;5025744;28;20400;-84
2022/12/28 01:26:09;;;;;;;7.65;3.67;;;6.90;99.90;;;;;;5025498;28;20129;-83
2022/12/28 01:28:36;;;;;;;8.10;3.05;;;6.00;99.90;;;;;;5008622;28;20076;-84
2022/12/28 01:31:13;;;;;;;10.25;2.92;;;6.10;99.90;;;;;;4993487;28;20041;-84
2022/12/28 01:33:39;;;;;;;11.70;3.00;;;6.00;99.90;;;;;;5010000;28;20050;-82
2022/12/28 01:36:16;;;;;;;7.22;3.13;;;6.00;99.90;;;;;;5029510;28;20046;-82
2022/12/28 01:38:42;;;;;;;13.02;3.90;;;6.00;99.90;;;;;;5013393;28;20037;-84
2022/12/28 01:41:17;;;;;;;8.90;2.65;;;6.00;99.90;;;;;;5012397;28;20064;-83
2022/12/28 01:43:51;;;;;;;7.72;3.72;;;6.00;99.90;;;;;;5029659;28;20579;-82
2022/12/28 01:46:36;;;;;;;12.80;3.70;;;6.00;99.90;;;;;;5014416;28;20044;-82
2022/12/28 01:49:35;;;;;;;6.75;2.83;;;6.00;99.90;;;;;;5030523;28;20050;-83
2022/12/28 01:52:43;;;;;;;6.97;2.92;;;6.00;99.90;;;;;;5032216;28;20439;-83
2022/12/28 01:55:17;;;;;;;5.93;2.72;;;6.00;99.90;;;;;;4991918;28;20100;-84
2022/12/28 01:58:04;;;;;;;9.70;3.65;;;6.00;99.90;;;;;;4992376;28;20074;-84
2022/12/28 02:00:30;;;;;;;7.32;3.45;;;6.00;99.90;;;;;;5003753;28;20049;-85
2022/12/28 02:03:20;;;;;;;7.30;3.47;;;6.90;99.90;;;;;;5009327;28;20045;-85
2022/12/28 02:05:53;;;;;;;12.15;3.13;;;6.00;99.90;;;;;;5010748;28;20053;-85
2022/12/28 02:08:28;;;;;;;7.30;3.17;;;6.50;99.90;;;;;;5013034;28;20050;-85
2022/12/28 02:10:55;;;;;;;8.57;3.40;;;6.00;99.90;;;;;;4994350;28;20109;-83
2022/12/28 02:13:23;;;;;;;10.88;3.83;;;7.10;99.90;;;;;;4977498;28;20049;-84
2022/12/28 02:15:49;;;;;;;10.68;3.47;;;6.90;99.90;;;;;;4993791;28;20128;-84
2022/12/28 02:18:17;;;;;;;10.32;3.63;;;6.00;99.90;;;;;;4994261;28;20509;-85
2022/12/28 02:21:15;;;;;;;12.23;3.75;;;6.10;99.90;;;;;;5010732;28;20378;-84
2022/12/28 02:24:22;;;;;;;5.88;3.40;;;6.00;99.90;;;;;;5009854;28;20103;-84
2022/12/28 02:27:14;;;;;;;7.63;3.40;;;6.70;99.90;;;;;;4994469;28;20042;-84
2022/12/28 02:30:01;;;;;;;5.05;3.67;;;6.00;99.90;;;;;;5009992;28;20085;-86
2022/12/28 02:32:30;;;;;;;9.35;3.92;;;6.00;99.90;;;;;;4992427;28;20050;-84
2022/12/28 02:35:05;;;;;;;7.30;3.38;;;6.00;99.90;;;;;;4993401;28;20053;-85
2022/12/28 02:37:40;;;;;;;9.57;3.70;;;6.00;99.90;;;;;;4993055;28;20053;-83
2022/12/28 02:40:22;;;;;;;11.68;4.38;;;6.00;99.90;;;;;;4993675;28;20046;-84
2022/12/28 02:42:49;;;;;;;7.03;3.22;;;6.00;99.90;;;;;;5010207;28;20050;-85
2022/12/28 02:51:24;;;;;;;4.20;3.22;;;6.00;99.90;;;;;;5008883;28;20088;-85
2022/12/28 02:54:08;;;;;;;9.27;3.22;;;6.00;99.90;;;;;;5009354;28;20361;-86
2022/12/28 02:56:51;;;;;;;6.03;3.28;;;6.00;99.90;;;;;;5046960;28;20068;-84
2022/12/28 03:00:07;;;;;;;4.23;2.80;;;6.00;99.90;;;;;;5031509;28;20463;-82
2022/12/28 03:03:08;;;;;;;4.82;3.58;;;6.00;99.90;;;;;;4998310;28;20107;-84
2022/12/28 03:08:59;;;;;;;4.10;3.20;;;6.00;99.90;;;;;;5051489;28;20434;-84
2022/12/28 03:11:44;;;;;;;7.40;3.45;;;6.10;99.90;;;;;;5014807;28;20045;-83
2022/12/28 03:14:17;;;;;;;10.43;3.60;;;6.10;99.90;;;;;;5031652;28;20106;-83
2022/12/28 03:33:32;;;;;;;6.80;3.22;;;6.30;99.90;;;;;;5030093;28;20095;-84
2022/12/28 03:36:03;;;;;;;8.07;3.60;;;6.30;99.90;;;;;;5014201;28;20045;-83
2022/12/28 03:38:36;;;;;;;8.63;3.28;;;6.30;99.90;;;;;;5030549;28;20051;-84
2022/12/28 03:41:11;;;;;;;8.23;3.75;;;6.40;99.90;;;;;;5029729;28;20045;-83
2022/12/28 03:43:48;;;;;;;5.65;3.67;;;6.40;99.90;;;;;;5030864;28;20185;-83
2022/12/28 03:46:31;;;;;;;8.85;3.80;;;6.50;99.90;;;;;;5013749;28;20109;-83
2022/12/28 03:48:58;;;;;;;10.15;3.65;;;6.50;99.90;;;;;;5030170;28;20045;-84
2022/12/28 03:51:26;;;;;;;7.75;3.58;;;7.70;99.90;;;;;;5030495;28;20170;-84
2022/12/28 03:53:52;;;;;;;7.95;4.45;;;6.50;99.90;;;;;;5047706;28;20075;-84
2022/12/28 03:56:23;;;;;;;7.15;3.58;;;7.20;99.90;;;;;;4997901;28;20111;-83
2022/12/28 03:58:51;;;;;;;8.50;3.55;;;7.90;99.90;;;;;;5012647;28;20049;-82
2022/12/28 04:01:17;;;;;;;5.95;3.58;;;7.80;99.90;;;;;;5030745;28;20040;-83
2022/12/28 04:03:43;;;;;;;6.78;3.88;;;5.80;99.90;;;;;;5014894;28;20053;-83
2022/12/28 04:06:17;;;;;;;5.97;3.70;;;7.40;99.90;;;;;;5030537;28;20502;-84
2022/12/28 04:08:44;;;;;;;4.68;3.15;;;6.70;99.90;;;;;;5015108;28;20165;-83
2022/12/28 04:11:11;;;;;;;6.07;3.63;;;6.70;99.90;;;;;;5013793;28;20045;-83
2022/12/28 04:13:37;;;;;;;6.75;3.40;;;6.70;99.90;;;;;;5030599;28;20051;-83
2022/12/28 04:16:06;;;;;;;6.47;3.20;;;6.30;99.90;;;;;;5013450;28;20049;-84
2022/12/28 04:18:33;;;;;;;7.65;2.88;;;6.70;99.90;;;;;;5048046;28;20052;-83
2022/12/28 04:20:59;;;;;;;8.13;3.63;;;7.90;99.90;;;;;;5014437;28;20045;-84
2022/12/28 04:23:26;;;;;;;7.68;3.58;;;6.70;99.90;;;;;;5031509;28;20055;-83
2022/12/28 04:26:12;;;;;;;4.05;3.10;;;7.30;99.90;;;;;;5033022;28;20472;-85
2022/12/28 04:28:39;;;;;;;5.10;3.40;;;6.80;99.90;;;;;;5013996;28;20049;-83
2022/12/28 04:31:07;;;;;;;3.67;3.13;;;6.80;99.90;;;;;;5029881;28;20242;-83
2022/12/28 04:33:34;;;;;;;5.45;3.58;;;6.80;99.90;;;;;;5013086;28;20457;-83
2022/12/28 04:36:05;;;;;;;5.20;3.15;;;7.90;99.90;;;;;;5029495;28;20409;-83
2022/12/28 04:38:32;;;;;;;4.22;3.03;;;6.80;99.90;;;;;;5047221;28;20089;-82
2022/12/28 04:40:57;;;;;;;4.90;3.20;;;8.10;99.90;;;;;;5047169;28;20128;-82
2022/12/28 04:43:23;;;;;;;3.10;2.53;;;6.80;99.90;;;;;;5012976;28;20175;-83
2022/12/28 04:45:56;;;;;;;4.03;2.83;;;6.80;99.90;;;;;;5028513;28;20044;-84
2022/12/28 04:48:22;;;;;;;4.30;3.00;;;7.40;99.90;;;;;;5029089;28;20045;-83
2022/12/28 04:50:48;;;;;;;3.25;2.58;;;7.20;99.90;;;;;;4995892;28;20197;-82
2022/12/28 04:53:14;;;;;;;3.90;2.53;;;7.80;99.90;;;;;;5046776;28;20571;-82
2022/12/28 04:55:39;;;;;;;6.00;2.92;;;6.90;99.90;;;;;;5009389;28;20405;-81
2022/12/28 04:58:05;;;;;;;3.80;2.97;;;7.10;99.90;;;;;;5025517;28;20049;-83
2022/12/28 05:00:31;;;;;;;4.13;2.67;;;7.00;99.90;;;;;;5027221;28;20481;-83
2022/12/28 05:02:58;;;;;;;5.30;3.00;;;7.00;99.90;;;;;;5008723;28;20130;-81
2022/12/28 05:05:25;;;;;;;3.63;3.00;;;7.00;99.90;;;;;;5025683;28;20049;-83
2022/12/28 05:07:51;;;;;;;5.50;3.60;;;7.10;99.90;;;;;;5008758;28;20053;-83
2022/12/28 05:10:16;;;;;;;3.53;3.05;;;7.60;99.90;;;;;;5012248;28;20053;-82
2022/12/28 05:12:42;;;;;;;3.92;3.28;;;7.50;99.90;;;;;;4997246;28;20193;-83
2022/12/28 05:15:09;;;;;;;3.63;2.92;;;8.20;99.90;;;;;;5013164;28;20081;-84
2022/12/28 05:17:34;;;;;;;4.03;3.55;;;7.10;99.90;;;;;;4997072;28;20049;-84
2022/12/28 05:20:00;;;;;;;4.82;3.47;;;7.10;99.90;;;;;;5011983;28;20045;-84
2022/12/28 05:22:27;;;;;;;4.32;3.38;;;7.10;99.90;;;;;;5029489;28;20049;-82
2022/12/28 05:24:52;;;;;;;5.75;4.15;;;7.20;99.90;;;;;;5012001;28;20045;-84
2022/12/28 05:27:18;;;;;;;5.30;3.92;;;7.10;99.90;;;;;;4996866;28;20500;-84
2022/12/28 05:29:44;;;;;;;6.55;4.32;;;7.20;99.90;;;;;;5029562;28;20046;-84
2022/12/28 05:32:10;;;;;;;5.55;4.03;;;7.70;99.90;;;;;;5012735;28;20473;-83
2022/12/28 05:34:36;;;;;;;4.70;3.65;;;7.30;99.90;;;;;;5029281;28;20107;-83
2022/12/28 05:37:01;;;;;;;7.07;4.20;;;7.30;99.90;;;;;;5028675;28;20083;-83
2022/12/28 05:39:27;;;;;;;5.65;4.40;;;7.30;99.90;;;;;;5013507;28;20064;-83
2022/12/28 05:41:53;;;;;;;5.68;4.38;;;7.60;99.90;;;;;;5030339;28;20124;-83
2022/12/28 05:44:19;;;;;;;7.28;4.55;;;7.40;99.90;;;;;;5032170;28;20068;-83
2022/12/28 05:46:44;;;;;;;5.95;4.72;;;8.50;99.90;;;;;;5030611;28;20479;-83
2022/12/28 05:49:10;;;;;;;7.93;4.50;;;8.40;99.90;;;;;;5012871;28;20046;-82
2022/12/28 05:51:36;;;;;;;8.90;5.38;;;8.10;99.90;;;;;;5012747;28;20041;-83
2022/12/28 05:54:05;;;;;;;5.53;4.97;;;7.70;99.90;;;;;;5028566;28;20045;-84
2022/12/28 05:56:31;;;;;;;6.13;5.07;;;7.50;99.90;;;;;;4996950;28;20134;-83
2022/12/28 05:59:03;;;;;;;9.40;5.60;;;7.50;99.90;;;;;;5012121;28;20068;-83
2022/12/28 06:01:32;;;;;;;7.78;6.18;;;7.60;99.90;;;;;;5012405;28;20590;-82
2022/12/28 06:04:00;;;;;;;9.45;6.70;;;7.60;99.90;;;;;;5012388;28;20124;-83
2022/12/28 06:06:27;;;;;;;7.75;6.00;;;7.60;99.90;;;;;;5011854;28;20564;-82
2022/12/28 06:08:53;;;;;;;12.40;7.93;;;7.60;99.90;;;;;;5028936;28;20045;-84
2022/12/28 06:11:22;;;;;;;9.63;6.95;;;7.70;99.90;;;;;;5028670;28;20045;-84
2022/12/28 06:13:48;;;;;;;11.80;7.28;;;6.90;99.90;;;;;;5013411;28;20531;-83
2022/12/28 06:16:17;;;;;;;9.73;6.75;;;7.70;99.90;;;;;;5030290;28;20345;-83
2022/12/28 06:18:44;;;;;;;9.25;6.85;;;7.70;99.90;;;;;;5012175;28;20038;-82
2022/12/28 06:21:22;;;;;;;11.40;6.97;;;7.90;99.90;;;;;;5030143;28;20055;-82
2022/12/28 06:23:49;;;;;;;10.15;7.97;;;8.60;99.90;;;;;;5028489;28;20129;-83
2022/12/28 06:26:18;;;;;;;12.57;7.22;;;7.80;99.90;;;;;;5011834;28;20042;-83
2022/12/28 06:28:44;;;;;;;10.57;7.05;;;7.90;99.90;;;;;;5027268;28;20038;-83
2022/12/28 06:31:22;;;;;;;13.27;7.22;;;8.80;99.90;;;;;;5011903;28;20045;-83
2022/12/28 06:33:52;;;;;;;13.05;7.15;;;8.00;99.90;;;;;;5011791;28;20045;-82
2022/12/28 06:36:20;;;;;;;8.10;5.32;;;8.60;99.90;;;;;;5029146;28;20057;-82
2022/12/28 06:38:47;;;;;;;8.10;6.13;;;8.00;99.90;;;;;;5011857;28;20053;-82
2022/12/28 06:41:14;;;;;;;9.00;6.50;;;8.00;99.90;;;;;;5010973;28;20042;-82
2022/12/28 06:43:41;;;;;;;10.43;5.95;;;9.20;99.90;;;;;;5028671;28;20041;-82
2022/12/28 06:46:07;;;;;;;8.90;5.78;;;8.00;99.90;;;;;;5027460;28;20037;-81
2022/12/28 06:48:33;;;;;;;7.25;5.65;;;8.10;99.90;;;;;;5027962;28;20729;-81
2022/12/28 06:51:05;;;;;;;10.85;5.50;;;8.10;99.90;;;;;;5011561;28;20049;-81
2022/12/28 06:53:33;;;;;;;6.18;5.50;;;8.10;99.90;;;;;;5027399;28;20391;-82
2022/12/28 06:56:10;;;;;;;7.45;5.55;;;8.20;99.90;;;;;;5027772;28;20551;-81
2022/12/28 06:58:36;;;;;;;7.18;5.45;;;7.50;99.90;;;;;;5027729;28;20060;-81
2022/12/28 07:01:07;;;;;;;7.50;5.38;;;8.20;99.90;;;;;;4995356;28;20041;-81
2022/12/28 07:03:33;;;;;;;9.75;6.90;;;8.30;99.90;;;;;;5028006;28;20474;-81
2022/12/28 07:06:00;;;;;;;7.78;5.53;;;8.30;99.90;;;;;;5011182;28;20041;-81
2022/12/28 07:08:26;;;;;;;8.02;5.65;;;9.40;99.90;;;;;;4995272;28;20060;-80
2022/12/28 07:10:52;;;;;;;7.60;5.40;;;8.30;99.90;;;;;;5010959;28;20053;-81
2022/12/28 07:13:18;;;;;;;6.63;5.43;;;8.30;99.90;;;;;;5011397;28;20037;-81
2022/12/28 07:15:43;;;;;;;7.72;4.85;;;8.40;99.90;;;;;;5026673;28;20099;-81
2022/12/28 07:18:09;;;;;;;7.68;5.03;;;8.40;99.90;;;;;;4978670;28;20619;-84
2022/12/28 07:20:35;;;;;;;7.30;5.45;;;8.40;99.90;;;;;;4978381;28;20064;-81
2022/12/28 07:23:00;;;;;;;7.25;4.70;;;8.40;99.90;;;;;;4978458;28;20402;-82
2022/12/28 07:25:26;;;;;;;5.53;4.97;;;8.40;99.90;;;;;;5027419;28;20076;-83
2022/12/28 07:27:52;;;;;;;7.22;4.78;;;9.30;99.90;;;;;;5026810;28;20099;-82
2022/12/28 07:30:18;;;;;;;6.93;5.18;;;8.40;99.90;;;;;;5010704;28;20045;-82
2022/12/28 07:32:43;;;;;;;9.75;6.18;;;8.40;99.90;;;;;;4976979;28;20072;-81
2022/12/28 07:35:09;;;;;;;8.98;5.40;;;8.50;99.90;;;;;;5010899;28;20051;-80
2022/12/28 07:37:35;;;;;;;7.28;5.07;;;8.50;99.90;;;;;;4993347;28;20088;-80
2022/12/28 07:40:01;;;;;;;9.13;5.22;;;8.50;99.90;;;;;;5010206;28;20077;-81
2022/12/28 07:42:30;;;;;;;8.20;5.53;;;9.60;99.90;;;;;;5026871;28;20129;-81
2022/12/28 07:44:56;;;;;;;8.35;6.32;;;8.50;99.90;;;;;;5026388;28;20050;-81
2022/12/28 07:47:22;;;;;;;12.10;6.55;;;8.50;99.90;;;;;;5010500;28;20091;-81
2022/12/28 07:49:47;;;;;;;8.10;6.20;;;9.00;99.90;;;;;;4993216;28;20049;-82
2022/12/28 07:52:13;;;;;;;9.68;5.88;;;8.60;99.90;;;;;;5010778;28;20045;-81
2022/12/28 07:54:39;;;;;;;9.32;5.68;;;8.60;99.90;;;;;;5026316;28;20523;-82
2022/12/28 07:57:04;;;;;;;17.80;6.07;;;8.10;99.90;;;;;;5048336;28;20431;-81
2022/12/28 07:59:30;;;;;;;10.98;6.45;;;9.80;99.90;;;;;;4997254;28;20045;-81
2022/12/28 08:01:56;;;;;;;12.63;6.20;;;8.70;99.90;;;;;;5029670;28;20041;-82
2022/12/28 08:04:22;;;;;;;12.82;6.20;;;8.70;99.90;;;;;;5029922;28;20048;-81
2022/12/28 08:06:48;;;;;;;11.30;6.18;;;9.20;99.90;;;;;;5029106;28;20052;-82
2022/12/28 08:09:14;;;;;;;12.80;6.53;;;8.80;99.90;;;;;;5029986;28;20045;-82
2022/12/28 08:11:42;;;;;;;15.40;7.97;;;9.20;99.90;;;;;;5012194;28;20476;-82
2022/12/28 08:14:09;;;;;;;10.45;5.75;;;8.90;99.90;;;;;;5030395;28;20045;-82
2022/12/28 08:16:40;;;;;;;9.77;5.80;;;9.30;99.90;;;;;;5029534;28;20049;-83
2022/12/28 08:19:07;;;;;;;8.93;5.93;;;9.60;99.90;;;;;;5030210;28;20118;-82
2022/12/28 08:21:35;;;;;;;12.23;6.50;;;8.90;99.90;;;;;;5014668;28;20037;-83
2022/12/28 08:24:02;;;;;;;9.07;6.78;;;8.90;99.90;;;;;;5013815;28;20077;-82
2022/12/28 08:26:34;;;;;;;10.88;6.53;;;8.90;99.90;;;;;;5014105;28;20488;-83
2022/12/28 08:29:02;;;;;;;7.82;6.43;;;8.90;99.90;;;;;;5012313;28;20071;-83
2022/12/28 08:31:34;;;;;;;9.82;6.88;;;9.10;99.90;;;;;;5013599;28;20403;-84
2022/12/28 08:34:01;;;;;;;7.88;6.82;;;9.50;99.90;;;;;;5013190;28;20048;-83
2022/12/28 08:36:27;;;;;;;13.77;7.10;;;8.90;99.90;;;;;;5028952;28;20076;-83
2022/12/28 08:38:53;;;;;;;10.32;7.53;;;8.90;99.90;;;;;;4981365;28;20063;-83
2022/12/28 08:41:22;;;;;;;8.20;7.28;;;8.90;99.90;;;;;;5012210;28;20073;-84
2022/12/28 08:43:48;;;;;;;9.13;7.18;;;8.90;99.90;;;;;;5012591;28;20045;-84
2022/12/28 08:46:25;;;;;;;8.65;6.97;;;8.90;99.90;;;;;;5028573;28;20088;-84
2022/12/28 08:48:53;;;;;;;11.18;7.72;;;8.90;99.90;;;;;;5029374;28;20377;-84
2022/12/28 08:51:22;;;;;;;10.32;6.40;;;8.90;99.90;;;;;;5029742;28;20523;-84
2022/12/28 08:53:48;;;;;;;9.77;5.78;;;9.40;99.90;;;;;;5046876;28;20506;-84
2022/12/28 08:56:23;;;;;;;10.77;5.85;;;8.90;99.90;;;;;;5012723;28;20057;-83
2022/12/28 08:58:50;;;;;;;7.07;5.63;;;8.90;99.90;;;;;;5046397;28;20485;-83
2022/12/28 09:01:18;;;;;;;7.10;5.63;;;9.00;99.90;;;;;;5029188;28;20488;-84
2022/12/28 09:03:47;;;;;;;6.20;5.00;;;9.00;99.90;;;;;;5012473;28;20488;-83
2022/12/28 09:06:19;;;;;;;6.57;4.25;;;9.00;99.90;;;;;;5028724;28;20134;-84
2022/12/28 09:08:49;;;;;;;4.88;4.38;;;9.00;99.90;;;;;;5047235;28;20131;-83
2022/12/28 09:11:15;;;;;;;4.15;3.75;;;9.00;99.90;;;;;;5011859;28;20509;-82
2022/12/28 09:13:41;;;;;;;6.72;3.97;;;9.00;99.90;;;;;;5029764;28;20077;-82
2022/12/28 09:16:09;;;;;;;3.70;3.10;;;9.00;99.90;;;;;;5011923;28;20487;-83
2022/12/28 09:18:36;;;;;;;3.33;3.03;;;9.10;99.90;;;;;;5028861;28;20076;-83
2022/12/28 09:21:07;;;;;;;3.42;2.67;;;9.50;99.90;;;;;;5012928;28;20044;-82
2022/12/28 09:23:33;;;;;;;2.97;2.60;;;9.00;99.90;;;;;;5029015;28;20136;-83
2022/12/28 09:26:22;;;;;;;3.00;2.70;;;9.00;99.90;;;;;;5012937;28;20477;-83
2022/12/28 09:28:51;;;;;;;2.47;1.98;;;9.00;99.90;;;;;;5028648;28;20142;-83
2022/12/28 09:31:17;;;;;;;2.78;1.85;;;9.80;99.90;;;;;;5012193;28;20049;-83
2022/12/28 09:34:01;;;;;;;3.40;2.42;;;9.30;99.90;;;;;;5012427;28;20484;-82
2022/12/28 09:36:32;;;;;;;3.65;2.25;;;9.00;99.90;;;;;;5029183;28;20150;-83
2022/12/28 09:39:03;;;;;;;2.38;2.10;;;9.20;99.90;;;;;;5031539;28;20049;-82
2022/12/28 09:41:39;;;;;;;3.35;2.80;;;9.10;99.90;;;;;;5030666;28;20102;-82
2022/12/28 09:44:23;;;;;;;3.95;2.65;;;9.00;99.90;;;;;;5014682;28;20073;-82
2022/12/28 09:47:11;;;;;;;2.97;2.58;;;9.10;99.90;;;;;;5029760;28;20412;-82
2022/12/28 09:49:39;;;;;;;3.20;2.80;;;9.10;99.90;;;;;;5028264;28;20099;-82
2022/12/28 09:52:14;;;;;;;4.68;3.20;;;9.10;99.90;;;;;;5029035;28;20044;-82
2022/12/28 09:54:40;;;;;;;3.40;2.90;;;9.10;99.90;;;;;;5011757;28;20044;-82
2022/12/28 09:57:14;;;;;;;3.47;3.17;;;9.10;99.90;;;;;;5032481;28;20512;-82
2022/12/28 09:59:40;;;;;;;3.17;2.65;;;9.10;99.90;;;;;;5016146;28;20052;-83
2022/12/28 10:02:18;;;;;;;8.13;2.92;;;9.10;99.90;;;;;;5015365;28;20503;-83
2022/12/28 10:04:47;;;;;;;3.13;2.75;;;9.10;99.90;;;;;;5032917;28;20123;-83
2022/12/28 10:07:13;;;;;;;3.30;2.97;;;9.20;99.90;;;;;;5014814;28;20365;-83
2022/12/28 10:09:38;;;;;;;3.83;2.70;;;9.20;99.90;;;;;;5031976;28;20051;-82
2022/12/28 10:12:17;;;;;;;3.33;2.53;;;9.20;99.90;;;;;;5031660;28;20053;-82
2022/12/28 10:14:46;;;;;;;7.07;2.95;;;9.40;99.90;;;;;;5031809;28;20045;-82
2022/12/28 10:17:13;;;;;;;4.72;2.88;;;9.20;99.90;;;;;;5032622;28;20047;-83
2022/12/28 10:19:39;;;;;;;2.90;2.30;;;9.20;99.90;;;;;;5031457;28;20098;-83
2022/12/28 10:22:13;;;;;;;3.42;2.42;;;9.20;99.90;;;;;;5016166;28;20428;-83
2022/12/28 10:24:40;;;;;;;4.85;2.13;;;9.20;99.90;;;;;;5015265;28;20063;-83
2022/12/28 10:27:19;;;;;;;4.28;2.45;;;9.20;99.90;;;;;;5032229;28;20084;-85
2022/12/28 10:29:45;;;;;;;2.65;2.20;;;9.20;99.90;;;;;;5017878;28;20128;-84
2022/12/28 10:32:11;;;;;;;5.00;3.85;;;9.20;99.90;;;;;;5017213;28;20072;-85
2022/12/28 10:34:55;;;;;;;3.00;2.17;;;9.20;99.90;;;;;;5001553;28;20055;-86
2022/12/28 10:37:22;;;;;;;3.13;2.15;;;9.40;99.90;;;;;;5032247;28;20056;-86
2022/12/28 10:39:57;;;;;;;2.30;2.10;;;9.20;99.90;;;;;;5017740;28;20398;-86
2022/12/28 10:42:25;;;;;;;2.58;2.13;;;9.20;99.90;;;;;;5031812;28;20059;-86
2022/12/28 10:44:52;;;;;;;3.40;2.63;;;9.50;99.90;;;;;;5031446;28;20045;-86
2022/12/28 10:47:40;;;;;;;4.60;2.30;;;9.20;99.90;;;;;;4999290;28;20421;-86
2022/12/28 10:50:26;;;;;;;3.58;3.13;;;9.20;99.90;;;;;;5014316;28;20056;-86
2022/12/28 10:52:57;;;;;;;4.22;3.20;;;10.00;99.90;;;;;;5031531;28;20049;-87
2022/12/28 10:55:29;;;;;;;4.20;3.50;;;9.20;99.90;;;;;;5015488;28;20083;-87
2022/12/28 10:57:54;;;;;;;3.83;3.15;;;9.20;99.90;;;;;;5032038;28;20053;-86
2022/12/28 11:00:21;;;;;;;4.78;3.80;;;9.30;99.90;;;;;;5015542;28;20051;-86
2022/12/28 11:02:47;;;;;;;3.65;3.05;;;9.30;99.90;;;;;;5016711;28;20083;-86
2022/12/28 11:05:22;;;;;;;3.42;2.80;;;9.20;99.90;;;;;;5017085;28;20073;-86
2022/12/28 11:07:49;;;;;;;3.80;3.03;;;9.20;99.90;;;;;;5015113;28;20037;-86
2022/12/28 11:10:25;;;;;;;5.82;2.88;;;9.20;99.90;;;;;;5014480;28;20337;-85
2022/12/28 11:12:56;;;;;;;4.18;3.58;;;9.20;99.90;;;;;;5031453;28;20041;-85
2022/12/28 11:15:24;;;;;;;6.60;3.47;;;9.20;99.90;;;;;;5030396;28;20496;-84
2022/12/28 11:17:57;;;;;;;3.55;3.08;;;9.20;99.90;;;;;;5031248;28;20037;-84
2022/12/28 11:20:30;;;;;;;3.67;2.65;;;9.20;99.90;;;;;;5013674;28;20067;-84
2022/12/28 11:22:56;;;;;;;2.88;2.53;;;9.20;99.90;;;;;;5014643;28;20099;-84
2022/12/28 11:25:30;;;;;;;6.15;3.08;;;9.30;99.90;;;;;;5030820;28;20056;-83
2022/12/28 11:27:57;;;;;;;3.55;2.30;;;9.30;99.90;;;;;;5030163;28;20055;-84
2022/12/28 11:30:23;;;;;;;4.57;2.13;;;9.20;99.90;;;;;;5031504;28;20410;-83
2022/12/28 11:33:00;;;;;;;2.33;2.00;;;9.30;99.90;;;;;;5013229;28;20037;-83
2022/12/28 11:35:28;;;;;;;2.75;1.98;;;9.30;99.90;;;;;;5030995;28;20435;-84
2022/12/28 11:37:57;;;;;;;2.10;1.77;;;9.30;99.90;;;;;;5030405;28;20708;-83
2022/12/28 11:40:46;;;;;;;2.75;1.95;;;9.40;99.90;;;;;;5030535;28;20060;-83
2022/12/28 11:43:38;;;;;;;2.35;1.65;;;9.30;99.90;;;;;;5031135;28;20519;-83
2022/12/28 11:46:24;;;;;;;3.33;1.33;;;9.30;99.90;;;;;;5008845;28;20431;-84
2022/12/28 11:48:49;;;;;;;2.40;1.70;;;9.30;99.90;;;;;;5013449;28;20041;-83
2022/12/28 11:51:19;;;;;;;2.50;1.27;;;9.30;99.90;;;;;;5030197;28;20072;-83
2022/12/28 11:53:45;;;;;;;2.50;1.80;;;9.30;99.90;;;;;;5029548;28;20136;-84
2022/12/28 11:56:20;;;;;;;3.15;2.22;;;9.30;99.90;;;;;;5013912;28;20127;-84
2022/12/28 11:59:00;;;;;;;2.22;1.60;;;9.30;99.90;;;;;;5012886;28;20041;-84
2022/12/28 12:01:26;;;;;;;1.90;1.35;;;9.30;99.90;;;;;;5013461;28;20127;-84
2022/12/28 12:03:58;;;;;;;1.83;1.55;;;9.50;99.90;;;;;;5013733;28;20144;-83
2022/12/28 12:06:42;;;;;;;1.38;1.20;;;9.30;99.90;;;;;;5013095;28;20048;-84
2022/12/28 12:09:19;;;;;;;1.45;1.27;;;9.30;99.90;;;;;;5013804;28;20049;-84
2022/12/28 12:11:56;;;;;;;2.15;1.70;;;9.30;99.90;;;;;;5013250;28;20095;-84
2022/12/28 12:15:00;;;;;;;3.53;1.80;;;9.30;99.90;;;;;;5030236;28;20080;-84
2022/12/28 12:17:46;;;;;;;3.80;1.95;;;9.30;99.90;;;;;;5005377;28;20063;-84
2022/12/28 12:20:27;;;;;;;2.38;1.92;;;9.30;99.90;;;;;;5028881;28;20098;-84
2022/12/28 12:23:01;;;;;;;2.28;1.80;;;9.20;99.90;;;;;;5013546;28;20060;-83
2022/12/28 12:25:38;;;;;;;2.55;2.05;;;9.30;99.90;;;;;;5029945;28;20041;-84
2022/12/28 12:28:20;;;;;;;2.63;1.83;;;9.20;99.90;;;;;;5030343;28;20447;-84
2022/12/28 12:30:46;;;;;;;3.83;2.40;;;9.20;99.90;;;;;;5013808;28;20118;-84
2022/12/28 12:33:17;;;;;;;2.20;1.83;;;9.30;99.90;;;;;;5029574;28;20048;-84
2022/12/28 12:36:00;;;;;;;2.78;2.28;;;9.20;99.90;;;;;;5030136;28;20142;-83
2022/12/28 12:39:03;;;;;;;3.35;2.30;;;9.30;99.90;;;;;;5013595;28;20077;-83
2022/12/28 12:42:07;;;;;;;2.65;1.83;;;9.30;99.90;;;;;;5012251;28;20044;-84
2022/12/28 12:45:06;;;;;;;1.77;1.67;;;9.20;99.90;;;;;;4999351;28;20133;-83
2022/12/28 12:48:01;;;;;;;1.95;1.67;;;9.20;99.90;;;;;;5014031;28;20149;-84
2022/12/28 12:50:35;;;;;;;1.60;1.42;;;9.20;99.90;;;;;;5020996;28;20111;-84
2022/12/28 12:53:14;;;;;;;2.55;1.65;;;9.20;99.90;;;;;;5013032;28;20044;-84
2022/12/28 12:55:54;;;;;;;2.38;1.42;;;8.10;99.90;;;;;;5029078;28;20049;-82
2022/12/28 12:58:30;;;;;;;2.17;1.45;;;9.20;99.90;;;;;;5028481;28;20060;-84
2022/12/28 13:01:17;;;;;;;1.83;1.52;;;9.20;99.90;;;;;;5012967;28;20488;-84
2022/12/28 13:03:50;;;;;;;1.92;1.40;;;9.20;99.90;;;;;;5029238;28;20128;-84
2022/12/28 13:06:18;;;;;;;;;;;9.20;99.90;;;;;;5029707;28;20124;-84
2022/12/28 13:09:00;;;;;;;2.75;1.48;;;9.60;99.90;;;;;;5029697;28;20049;-83
2022/12/28 13:11:28;;;;;;;1.92;1.40;;;9.20;99.90;;;;;;5012609;28;20389;-84
2022/12/28 13:13:54;;;;;;;1.77;1.30;;;9.20;99.90;;;;;;5029333;28;20045;-84
2022/12/28 13:16:26;;;;;;;2.95;1.90;;;9.20;99.90;;;;;;4996342;28;20199;-83
2022/12/28 13:18:53;;;;;;;2.28;1.67;;;9.20;99.90;;;;;;5012792;28;20072;-84
2022/12/28 13:21:20;;;;;;;2.38;1.50;;;9.20;99.90;;;;;;5013331;28;20445;-84
2022/12/28 13:23:47;;;;;;;1.40;1.30;;;9.20;99.90;;;;;;4996529;28;20068;-84
2022/12/28 13:26:15;;;;;;;1.73;1.20;;;9.20;99.90;;;;;;5012897;28;20488;-84
2022/12/28 13:29:01;;;;;;;1.80;1.60;;;9.50;99.90;;;;;;5011718;28;20178;-84
2022/12/28 13:31:27;;;;;;;1.60;1.42;;;9.20;99.90;;;;;;5015811;28;20049;-84
2022/12/28 13:33:57;;;;;;;1.83;1.50;;;9.50;99.90;;;;;;5016864;28;20182;-84
2022/12/28 13:36:23;;;;;;;2.22;1.67;;;9.20;99.90;;;;;;5015774;28;20049;-84
2022/12/28 13:39:28;;;;;;;2.80;1.52;;;9.40;99.90;;;;;;5033117;28;20073;-84
2022/12/28 13:42:01;;;;;;;2.75;1.40;;;9.30;99.90;;;;;;4972649;28;20057;-83